createdAt,value
2018-08-22T00:00:21.980Z,75.53
2018-08-22T00:03:19.763Z,75.32
2018-08-22T00:06:17.740Z,75.32
2018-08-22T00:09:15.812Z,75.93
2018-08-22T00:12:12.851Z,75.99
2018-08-22T00:15:10.845Z,76.44
2018-08-22T00:18:08.840Z,76.83
2018-08-22T00:21:06.772Z,77.03
2018-08-22T00:24:04.803Z,76.78
2018-08-22T00:27:02.843Z,75.95
2018-08-22T00:30:00.912Z,76.97
2018-08-22T00:32:58.826Z,77.17
2018-08-22T00:35:56.667Z,77.60
2018-08-22T00:38:53.712Z,77.39
2018-08-22T00:41:51.620Z,77.07
2018-08-22T00:44:49.433Z,77.36
2018-08-22T00:47:47.195Z,77.92
2018-08-22T00:50:44.407Z,77.72
2018-08-22T00:53:41.792Z,76.50
2018-08-22T00:56:39.747Z,77.01
2018-08-22T00:59:36.737Z,75.58
2018-08-22T01:02:34.656Z,74.86
2018-08-22T01:05:31.659Z,75.82
2018-08-22T01:08:28.759Z,76.27
2018-08-22T01:11:26.676Z,76.13
2018-08-22T01:14:23.671Z,77.19
2018-08-22T01:17:21.531Z,77.14
2018-08-22T01:20:18.556Z,77.33
2018-08-22T01:23:15.714Z,76.50
2018-08-22T01:26:13.811Z,76.56
2018-08-22T01:29:10.976Z,75.66
2018-08-22T01:32:09.147Z,75.63
2018-08-22T01:35:07.191Z,74.63
2018-08-22T01:38:05.279Z,74.66
2018-08-22T01:41:03.373Z,75.95
2018-08-22T01:44:01.267Z,75.66
2018-08-22T01:46:59.046Z,74.95
2018-08-22T01:49:56.993Z,74.32
2018-08-22T01:52:54.239Z,74.14
2018-08-22T01:55:52.210Z,73.97
2018-08-22T01:58:50.172Z,74.13
2018-08-22T02:01:48.184Z,73.11
2018-08-22T02:04:46.043Z,72.77
2018-08-22T02:07:43.308Z,72.79
2018-08-22T02:10:40.718Z,73.31
2018-08-22T02:13:37.540Z,72.67
2018-08-22T02:16:35.354Z,72.64
2018-08-22T02:19:33.316Z,72.80
2018-08-22T02:22:30.385Z,72.55
2018-08-22T02:25:28.542Z,72.24
2018-08-22T02:28:26.555Z,73.30
2018-08-22T02:31:24.476Z,72.88
2018-08-22T02:34:22.325Z,72.13
2018-08-22T02:37:20.176Z,72.16
2018-08-22T02:40:18.247Z,72.65
2018-08-22T02:43:16.347Z,72.08
2018-08-22T02:46:14.366Z,72.56
2018-08-22T02:49:12.495Z,72.16
2018-08-22T02:52:10.660Z,72.18
2018-08-22T02:55:07.756Z,71.42
2018-08-22T02:58:05.083Z,71.96
2018-08-22T03:01:02.952Z,71.56
2018-08-22T03:04:00.208Z,71.37
2018-08-22T03:06:58.272Z,71.85
2018-08-22T03:09:56.440Z,71.32
2018-08-22T03:12:53.646Z,71.39
2018-08-22T03:15:51.813Z,70.97
2018-08-22T03:18:49.844Z,72.05
2018-08-22T03:21:47.066Z,71.42
2018-08-22T03:24:45.184Z,71.67
2018-08-22T03:27:42.083Z,71.31
2018-08-22T03:30:39.366Z,71.44
2018-08-22T03:33:36.680Z,71.61
2018-08-22T03:36:34.719Z,71.97
2018-08-22T03:39:32.832Z,71.07
2018-08-22T03:42:30.780Z,71.40
2018-08-22T03:45:27.995Z,71.51
2018-08-22T03:48:25.936Z,71.18
2018-08-22T03:51:23.043Z,71.61
2018-08-22T03:54:20.143Z,71.13
2018-08-22T03:57:18.325Z,71.47
2018-08-22T04:00:16.239Z,71.75
2018-08-22T04:03:14.154Z,71.73
2018-08-22T04:06:12.022Z,71.33
2018-08-22T04:09:10.020Z,70.81
2018-08-22T04:12:07.575Z,70.76
2018-08-22T04:15:05.231Z,71.21
2018-08-22T04:18:02.727Z,70.76
2018-08-22T04:21:00.419Z,71.03
2018-08-22T04:23:57.967Z,70.97
2018-08-22T04:26:55.637Z,70.91
2018-08-22T04:29:53.088Z,71.15
2018-08-22T04:32:50.824Z,70.32
2018-08-22T04:35:48.366Z,70.61
2018-08-22T04:38:45.807Z,71.10
2018-08-22T04:41:43.251Z,70.68
2018-08-22T04:44:40.134Z,70.43
2018-08-22T04:47:37.064Z,70.67
2018-08-22T04:50:34.563Z,69.85
2018-08-22T04:53:32.223Z,70.46
2018-08-22T04:56:29.138Z,69.90
2018-08-22T04:59:25.976Z,69.86
2018-08-22T05:02:23.152Z,69.98
2018-08-22T05:05:20.736Z,70.01
2018-08-22T05:08:18.224Z,69.99
2018-08-22T05:11:15.628Z,69.21
2018-08-22T05:14:12.489Z,69.04
2018-08-22T05:17:10.027Z,69.92
2018-08-22T05:20:07.635Z,70.00
2018-08-22T05:23:04.476Z,69.11
2018-08-22T05:26:02.112Z,69.55
2018-08-22T05:28:59.733Z,68.73
2018-08-22T05:31:57.250Z,68.83
2018-08-22T05:34:54.746Z,68.28
2018-08-22T05:37:52.843Z,68.58
2018-08-22T05:40:50.164Z,68.19
2018-08-22T05:43:47.516Z,68.17
2018-08-22T05:46:45.659Z,67.06
2018-08-22T05:49:42.924Z,67.06
2018-08-22T05:52:40.989Z,67.34
2018-08-22T05:55:38.720Z,66.83
2018-08-22T05:58:36.707Z,66.73
2018-08-22T06:01:34.722Z,66.35
2018-08-22T06:04:32.743Z,65.78
2018-08-22T06:07:30.857Z,63.53
2018-08-22T06:10:28.800Z,61.16
2018-08-22T06:13:25.797Z,59.30
2018-08-22T06:16:23.097Z,58.49
2018-08-22T06:19:21.007Z,58.09
2018-08-22T06:22:18.254Z,55.55
2018-08-22T06:25:16.093Z,53.47
2018-08-22T06:28:13.808Z,51.79
2018-08-22T06:31:11.679Z,50.37
2018-08-22T06:34:09.517Z,49.55
2018-08-22T06:37:06.663Z,49.01
2018-08-22T06:40:04.665Z,48.75
2018-08-22T06:43:02.549Z,47.08
2018-08-22T06:46:00.487Z,46.86
2018-08-22T06:48:58.667Z,49.89
2018-08-22T06:51:56.810Z,49.73
2018-08-22T06:54:54.941Z,48.49
2018-08-22T06:57:52.345Z,47.04
2018-08-22T07:00:50.257Z,45.63
2018-08-22T07:03:48.304Z,45.05
2018-08-22T07:06:45.480Z,43.15
2018-08-22T07:09:43.174Z,45.23
2018-08-22T07:12:40.396Z,44.68
2018-08-22T07:15:38.389Z,43.55
2018-08-22T07:18:36.294Z,43.66
2018-08-22T07:21:33.601Z,44.18
2018-08-22T07:24:31.092Z,42.55
2018-08-22T07:27:29.152Z,42.44
2018-08-22T07:30:27.964Z,42.49
2018-08-22T07:33:25.965Z,43.62
2018-08-22T07:36:23.895Z,40.55
2018-08-22T07:39:22.723Z,39.28
2018-08-22T07:42:20.752Z,41.63
2018-08-22T07:45:18.555Z,40.83
2018-08-22T07:48:16.444Z,39.21
2018-08-22T07:51:14.321Z,38.49
2018-08-22T07:54:12.221Z,40.00
2018-08-22T07:57:10.259Z,41.75
2018-08-22T08:00:08.071Z,41.42
2018-08-22T08:03:05.978Z,39.96
2018-08-22T08:06:04.027Z,39.45
2018-08-22T08:09:02.060Z,40.22
2018-08-22T08:12:00.325Z,38.51
2018-08-22T08:15:05.353Z,36.91
2018-08-22T08:18:03.472Z,37.52
2018-08-22T08:21:01.490Z,38.60
2018-08-22T08:23:59.316Z,35.02
2018-08-22T08:26:57.268Z,34.31
2018-08-22T08:29:55.415Z,38.23
2018-08-22T08:32:53.402Z,37.70
2018-08-22T08:35:51.478Z,38.79
2018-08-22T08:38:49.263Z,38.39
2018-08-22T08:41:47.673Z,36.48
2018-08-22T08:44:45.388Z,35.70
2018-08-22T08:47:43.341Z,33.92
2018-08-22T08:50:41.263Z,37.67
2018-08-22T08:53:39.340Z,38.18
2018-08-22T08:56:36.491Z,37.15
2018-08-22T08:59:34.426Z,38.05
2018-08-22T09:02:32.595Z,35.04
2018-08-22T09:05:30.611Z,35.08
2018-08-22T09:08:28.284Z,31.36
2018-08-22T09:11:26.296Z,31.44
2018-08-22T09:14:24.320Z,30.58
2018-08-22T09:17:22.401Z,31.89
2018-08-22T09:20:21.225Z,32.06
2018-08-22T09:23:19.080Z,30.76
2018-08-22T09:26:16.725Z,32.29
2018-08-22T09:29:14.785Z,32.96
2018-08-22T09:32:12.630Z,35.82
2018-08-22T09:35:10.711Z,35.75
2018-08-22T09:38:08.758Z,36.43
2018-08-22T09:41:06.855Z,35.83
2018-08-22T09:44:04.544Z,35.54
2018-08-22T09:47:02.572Z,36.10
2018-08-22T09:50:00.574Z,36.81
2018-08-22T09:52:58.235Z,37.09
2018-08-22T09:55:56.295Z,37.99
2018-08-22T09:58:54.217Z,37.29
2018-08-22T10:01:51.946Z,36.39
2018-08-22T10:04:50.116Z,36.57
2018-08-22T10:07:47.863Z,37.34
2018-08-22T10:10:45.028Z,36.94
2018-08-22T10:13:43.089Z,36.13
2018-08-22T10:16:40.971Z,35.52
2018-08-22T10:19:38.975Z,37.35
2018-08-22T10:22:36.089Z,36.85
2018-08-22T10:25:34.100Z,37.82
2018-08-22T10:28:32.181Z,37.31
2018-08-22T10:31:31.268Z,38.52
2018-08-22T10:34:29.131Z,38.25
2018-08-22T10:37:27.068Z,37.70
2018-08-22T10:40:25.051Z,37.76
2018-08-22T10:43:22.976Z,36.79
2018-08-22T10:46:20.267Z,36.71
2018-08-22T10:49:18.255Z,37.63
2018-08-22T10:52:16.500Z,37.09
2018-08-22T10:55:14.352Z,36.81
2018-08-22T10:58:11.579Z,36.39
2018-08-22T11:01:09.420Z,34.12
2018-08-22T11:04:07.442Z,33.84
2018-08-22T11:07:05.281Z,33.78
2018-08-22T11:10:03.115Z,33.29
2018-08-22T11:13:00.947Z,34.85
2018-08-22T11:15:59.070Z,33.48
2018-08-22T11:18:57.112Z,33.39
2018-08-22T11:22:07.545Z,33.18
2018-08-22T11:25:17.715Z,32.76
2018-08-22T11:28:27.490Z,31.88
2018-08-22T11:31:37.374Z,32.76
2018-08-22T11:34:47.377Z,32.10
2018-08-22T11:37:45.254Z,33.42
2018-08-22T11:40:43.220Z,33.69
2018-08-22T11:43:41.453Z,34.08
2018-08-22T11:46:39.754Z,34.27
2018-08-22T11:49:38.564Z,35.20
2018-08-22T11:52:36.652Z,34.14
2018-08-22T11:55:34.657Z,34.93
2018-08-22T11:58:32.608Z,34.42
2018-08-22T12:01:30.604Z,34.71
2018-08-22T12:04:29.620Z,34.36
2018-08-22T12:07:26.932Z,35.11
2018-08-22T12:10:24.042Z,35.33
2018-08-22T12:13:21.567Z,35.69
2018-08-22T12:16:19.581Z,35.54
2018-08-22T12:19:17.549Z,34.77
2018-08-22T12:22:15.460Z,34.67
2018-08-22T12:25:13.360Z,35.92
2018-08-22T12:28:11.463Z,35.82
2018-08-22T12:31:09.366Z,35.28
2018-08-22T12:34:07.308Z,35.29
2018-08-22T12:37:05.246Z,36.39
2018-08-22T12:40:03.178Z,35.29
2018-08-22T12:43:01.304Z,35.93
2018-08-22T12:45:59.491Z,35.56
2018-08-22T12:48:57.255Z,35.07
2018-08-22T12:51:54.426Z,35.66
2018-08-22T12:54:52.144Z,35.56
2018-08-22T12:57:49.935Z,34.42
2018-08-22T13:00:47.740Z,34.64
2018-08-22T13:03:45.467Z,34.83
2018-08-22T13:06:43.477Z,35.05
2018-08-22T13:09:41.350Z,34.10
2018-08-22T13:12:39.293Z,35.03
2018-08-22T13:15:37.090Z,34.23
2018-08-22T13:18:35.225Z,34.84
2018-08-22T13:21:32.843Z,35.51
2018-08-22T13:24:30.572Z,35.07
2018-08-22T13:27:27.652Z,35.80
2018-08-22T13:30:25.563Z,34.32
2018-08-22T13:33:23.525Z,34.72
2018-08-22T13:36:21.487Z,35.02
2018-08-22T13:39:20.352Z,34.70
2018-08-22T13:42:18.219Z,34.75
2018-08-22T13:45:15.985Z,34.90
2018-08-22T13:48:13.995Z,35.00
2018-08-22T13:51:11.964Z,35.28
2018-08-22T13:54:10.052Z,34.88
2018-08-22T13:57:07.895Z,34.58
2018-08-22T14:00:05.812Z,34.68
2018-08-22T14:03:03.709Z,34.79
2018-08-22T14:06:01.880Z,35.28
2018-08-22T14:08:59.399Z,36.40
2018-08-22T14:11:57.142Z,36.34
2018-08-22T14:14:54.898Z,35.50
2018-08-22T14:17:52.896Z,36.42
2018-08-22T14:20:50.761Z,36.02
2018-08-22T14:23:48.540Z,36.01
2018-08-22T14:26:46.286Z,35.47
2018-08-22T14:29:44.388Z,34.59
2018-08-22T14:32:42.384Z,34.41
2018-08-22T14:35:40.188Z,34.62
2018-08-22T14:38:38.407Z,35.83
2018-08-22T14:41:35.475Z,35.40
2018-08-22T14:44:33.445Z,35.50
2018-08-22T14:47:31.372Z,35.19
2018-08-22T14:50:29.280Z,36.56
2018-08-22T14:53:27.286Z,36.20
2018-08-22T14:56:24.815Z,35.90
2018-08-22T14:59:22.513Z,37.18
2018-08-22T15:02:20.396Z,35.89
2018-08-22T15:05:18.108Z,36.73
2018-08-22T15:08:16.168Z,35.23
2018-08-22T15:11:14.143Z,35.11
2018-08-22T15:14:13.073Z,35.47
2018-08-22T15:17:10.979Z,34.69
2018-08-22T15:20:08.951Z,34.38
2018-08-22T15:23:06.780Z,34.77
2018-08-22T15:26:04.791Z,35.77
2018-08-22T15:29:02.300Z,36.35
2018-08-22T15:31:59.508Z,35.31
2018-08-22T15:35:05.524Z,36.16
2018-08-22T15:38:03.507Z,36.22
2018-08-22T15:41:01.692Z,35.53
2018-08-22T15:43:59.648Z,35.95
2018-08-22T15:46:56.728Z,36.37
2018-08-22T15:49:54.707Z,37.06
2018-08-22T15:52:52.581Z,37.40
2018-08-22T15:55:50.511Z,36.75
2018-08-22T15:58:48.676Z,37.75
2018-08-22T16:01:46.421Z,37.37
2018-08-22T16:04:45.301Z,37.25
2018-08-22T16:07:43.203Z,37.01
2018-08-22T16:10:41.166Z,36.89
2018-08-22T16:13:40.194Z,37.45
2018-08-22T16:16:45.901Z,37.81
2018-08-22T16:19:43.765Z,37.29
2018-08-22T16:22:41.680Z,37.54
2018-08-22T16:25:44.628Z,37.16
2018-08-22T16:28:43.581Z,37.34
2018-08-22T16:31:57.218Z,37.75
2018-08-22T16:34:55.140Z,37.99
2018-08-22T16:37:55.264Z,38.46
2018-08-22T16:40:55.585Z,38.06
2018-08-22T16:43:59.715Z,37.79
2018-08-22T16:46:57.719Z,37.23
2018-08-22T16:49:55.641Z,38.23
2018-08-22T16:52:53.615Z,38.61
2018-08-22T16:55:51.276Z,38.86
2018-08-22T16:58:49.447Z,38.67
2018-08-22T17:01:47.449Z,38.43
2018-08-22T17:04:45.379Z,38.49
2018-08-22T17:07:43.465Z,39.42
2018-08-22T17:10:50.392Z,38.63
2018-08-22T17:13:54.512Z,39.36
2018-08-22T17:16:51.556Z,39.17
2018-08-22T17:19:49.635Z,39.87
2018-08-22T17:22:46.696Z,39.28
2018-08-22T17:25:44.590Z,39.94
2018-08-22T17:28:44.460Z,39.71
2018-08-22T17:31:41.644Z,39.59
2018-08-22T17:34:39.505Z,40.04
2018-08-22T17:37:36.668Z,40.42
2018-08-22T17:40:34.640Z,41.03
2018-08-22T17:43:32.726Z,41.24
2018-08-22T17:46:30.600Z,41.47
2018-08-22T17:49:28.453Z,41.00
2018-08-22T17:52:27.660Z,40.87
2018-08-22T17:55:25.939Z,41.33
2018-08-22T17:58:23.654Z,41.89
2018-08-22T18:01:21.569Z,41.98
2018-08-22T18:04:18.732Z,42.54
2018-08-22T18:07:16.502Z,42.24
2018-08-22T18:10:14.396Z,42.64
2018-08-22T18:13:17.310Z,43.00
2018-08-22T18:16:14.993Z,43.60
2018-08-22T18:19:13.143Z,44.17
2018-08-22T18:22:11.993Z,44.06
2018-08-22T18:25:09.989Z,44.46
2018-08-22T18:28:11.187Z,45.37
2018-08-22T18:31:09.293Z,45.09
2018-08-22T18:34:13.108Z,45.57
2018-08-22T18:37:10.313Z,46.72
2018-08-22T18:40:40.703Z,46.72
2018-08-22T18:43:37.920Z,47.45
2018-08-22T18:46:34.942Z,48.59
2018-08-22T18:49:33.002Z,48.50
2018-08-22T18:52:31.082Z,49.53
2018-08-22T18:55:29.123Z,49.89
2018-08-22T18:58:27.032Z,50.05
2018-08-22T19:01:26.124Z,50.22
2018-08-22T19:04:24.134Z,50.98
2018-08-22T19:07:22.053Z,50.18
2018-08-22T19:10:20.177Z,49.64
2018-08-22T19:13:23.159Z,50.62
2018-08-22T19:16:21.355Z,51.09
2018-08-22T19:19:19.361Z,51.97
2018-08-22T19:22:16.755Z,52.98
2018-08-22T19:25:20.500Z,53.85
2018-08-22T19:28:18.520Z,53.89
2018-08-22T19:31:16.482Z,52.85
2018-08-22T19:34:14.563Z,53.99
2018-08-22T19:37:12.632Z,54.21
2018-08-22T19:40:18.748Z,53.80
2018-08-22T19:43:16.712Z,54.76
2018-08-22T19:46:14.497Z,54.50
2018-08-22T19:49:11.876Z,54.97
2018-08-22T19:52:09.602Z,55.77
2018-08-22T19:55:08.295Z,54.86
2018-08-22T19:58:07.270Z,55.20
2018-08-22T20:01:05.395Z,55.68
2018-08-22T20:04:06.215Z,56.17
2018-08-22T20:07:04.107Z,56.14
2018-08-22T20:10:01.874Z,56.28
